Terminal Aerodrome Forecast
Issued by NWS Sterling, VA

Current Version | Previous Version | Text Only | Print | Product List | Glossary Off
Versions: 1 2 3 4 5 6 7 8 9 10 11 12 13 14 15 16 17 18 19 20 21 22 23 24 25 26

000
FTUS41 KLWX 150500 RRA
TAFIAD
TAF
KIAD 150552Z 1506/1612 18011G18KT P6SM -SHRA FEW030 OVC050
     FM150800 18012KT P6SM -SHRA OVC025
     FM151000 18012KT 6SM -SHRA OVC010
     FM151100 18013KT 6SM -SHRA OVC008
     FM151400 23014KT 3SM SHRA OVC012
     FM151800 29013KT 5SM -SHRA OVC025
     FM152200 32019G30KT P6SM -SHRA OVC020
     FM160000 33019G34KT P6SM BKN040
     FM160400 33020G29KT P6SM SCT150
     FM160800 33014KT P6SM SKC=

USA.gov is the U.S. government's official web portal to all federal, state and local government web resources and services.